Pittsburgh, Pennsylvania
Traffic Map
Current Weather Conditions
Pittsburgh, Pennsylvania
Few Clouds
Few Clouds
27°
Feels Like: 20°
Wind Chill: 20° Ceiling: Unl
Heat Index: 27° Visibility: 10mi
Dew Point: Wind: 6mph
Humidity: 39% Direction: 290° (WNW)
Pressure: 30.44in Gusts: 0mph
Raw Report DataKAGC 211953Z 29005KT 10SM FEW043 M03/M15 A3044 RMK AO2 SLP332 T10281150
Traffic Incident Summary
Active as of:
Severity:
Category:
InformationThere was an issue retrieving the traffic information for this location. Please try a different location or try again shortly.
Advertisements
Track Severe Weather on mobile